createdAt,value
2022-07-25T00:02:19.900Z,20.16
2022-07-25T00:04:49.533Z,20.14
2022-07-25T00:07:17.393Z,19.97
2022-07-25T00:09:45.285Z,20.05
2022-07-25T00:12:13.962Z,19.72
2022-07-25T00:14:41.844Z,19.78
2022-07-25T00:17:11.113Z,19.51
2022-07-25T00:19:39.024Z,19.35
2022-07-25T00:22:06.974Z,19.29
2022-07-25T00:24:35.184Z,19.47
2022-07-25T00:27:03.825Z,18.79
2022-07-25T00:29:31.763Z,19.45
2022-07-25T00:31:59.870Z,19.41
2022-07-25T00:34:28.998Z,19.33
2022-07-25T00:36:56.843Z,19.12
2022-07-25T00:39:24.676Z,19.29
2022-07-25T00:41:52.505Z,19.27
2022-07-25T00:44:25.287Z,19.48
2022-07-25T00:46:53.482Z,19.52
2022-07-25T00:49:21.361Z,19.23
2022-07-25T00:51:51.456Z,19.25
2022-07-25T00:54:19.730Z,19.33
2022-07-25T00:56:47.670Z,19.38
2022-07-25T00:59:16.659Z,19.34
2022-07-25T01:01:45.679Z,19.11
2022-07-25T01:04:13.626Z,19.11
2022-07-25T01:06:41.636Z,18.76
2022-07-25T01:09:10.899Z,18.81
2022-07-25T01:11:39.353Z,18.89
2022-07-25T01:14:08.032Z,18.99
2022-07-25T01:16:36.428Z,18.99
2022-07-25T01:19:04.594Z,18.80
2022-07-25T01:21:33.832Z,18.91
2022-07-25T01:24:01.796Z,18.98
2022-07-25T01:26:30.550Z,19.04
2022-07-25T01:28:58.547Z,18.93
2022-07-25T01:31:26.685Z,18.85
2022-07-25T01:33:54.583Z,18.96
2022-07-25T01:36:22.484Z,18.72
2022-07-25T01:38:51.703Z,18.79
2022-07-25T01:41:22.671Z,18.87
2022-07-25T01:43:50.899Z,18.87
2022-07-25T01:46:18.879Z,18.74
2022-07-25T01:48:46.873Z,18.85
2022-07-25T01:51:14.855Z,18.40
2022-07-25T01:53:48.633Z,18.43
2022-07-25T01:56:18.127Z,18.65
2022-07-25T01:58:49.769Z,18.29
2022-07-25T02:01:17.681Z,18.27
2022-07-25T02:03:49.403Z,18.21
2022-07-25T02:06:18.889Z,18.31
2022-07-25T02:08:46.899Z,18.43
2022-07-25T02:11:14.857Z,18.40
2022-07-25T02:13:44.668Z,18.47
2022-07-25T02:16:12.869Z,18.42
2022-07-25T02:18:40.957Z,18.50
2022-07-25T02:21:14.507Z,18.40
2022-07-25T02:23:43.282Z,18.38
2022-07-25T02:26:11.737Z,18.21
2022-07-25T02:28:39.885Z,18.13
2022-07-25T02:31:09.727Z,18.09
2022-07-25T02:33:38.022Z,17.71
2022-07-25T02:36:06.107Z,18.03
2022-07-25T02:38:33.972Z,17.99
2022-07-25T02:41:02.190Z,17.93
2022-07-25T02:43:29.990Z,17.71
2022-07-25T02:45:58.057Z,17.75
2022-07-25T02:48:27.374Z,17.70
2022-07-25T02:50:55.191Z,17.94
2022-07-25T02:53:46.800Z,18.03
2022-07-25T02:56:10.831Z,17.87
2022-07-25T02:58:39.343Z,17.73
2022-07-25T03:01:07.884Z,17.81
2022-07-25T03:03:37.258Z,17.77
2022-07-25T03:06:05.483Z,17.87
2022-07-25T03:08:33.418Z,17.96
2022-07-25T03:11:01.245Z,18.06
2022-07-25T03:13:28.969Z,18.10
2022-07-25T03:15:57.042Z,18.04
2022-07-25T03:18:24.797Z,18.04
2022-07-25T03:20:53.995Z,17.68
2022-07-25T03:23:21.767Z,17.94
2022-07-25T03:25:49.669Z,17.62
2022-07-25T03:28:17.467Z,17.67
2022-07-25T03:30:45.384Z,17.97
2022-07-25T03:33:13.160Z,18.06
2022-07-25T03:35:41.046Z,18.02
2022-07-25T03:38:10.313Z,18.02
2022-07-25T03:40:38.314Z,17.99
2022-07-25T03:43:06.415Z,17.98
2022-07-25T03:45:34.277Z,18.04
2022-07-25T03:48:02.098Z,17.95
2022-07-25T03:50:29.953Z,18.07
2022-07-25T03:52:57.779Z,18.12
2022-07-25T03:55:27.891Z,18.22
2022-07-25T03:57:55.696Z,18.24
2022-07-25T04:00:23.433Z,18.14
2022-07-25T04:02:51.353Z,18.15
2022-07-25T04:05:19.194Z,18.21
2022-07-25T04:07:46.907Z,18.39
2022-07-25T04:10:14.746Z,18.44
2022-07-25T04:12:45.601Z,18.46
2022-07-25T04:15:13.726Z,18.60
2022-07-25T04:17:41.495Z,18.63
2022-07-25T04:20:10.172Z,18.53
2022-07-25T04:22:40.092Z,18.66
2022-07-25T04:25:10.472Z,18.73
2022-07-25T04:27:38.415Z,18.83
2022-07-25T04:30:08.807Z,18.81
2022-07-25T04:32:36.564Z,18.78
2022-07-25T04:35:04.662Z,18.80
2022-07-25T04:37:32.766Z,18.80
2022-07-25T04:40:00.508Z,18.94
2022-07-25T04:42:28.358Z,18.96
2022-07-25T04:44:56.208Z,18.93
2022-07-25T04:47:25.327Z,18.88
2022-07-25T04:49:53.490Z,19.03
2022-07-25T04:52:21.937Z,19.17
2022-07-25T04:54:49.917Z,19.19
2022-07-25T04:57:17.854Z,19.16
2022-07-25T04:59:45.727Z,19.33
2022-07-25T05:02:13.567Z,19.24
2022-07-25T05:04:45.292Z,19.19
2022-07-25T05:07:13.466Z,19.36
2022-07-25T05:09:41.497Z,19.34
2022-07-25T05:12:10.106Z,19.58
2022-07-25T05:14:38.580Z,19.45
2022-07-25T05:17:06.565Z,19.69
2022-07-25T05:19:35.070Z,19.66
2022-07-25T05:22:04.624Z,19.80
2022-07-25T05:24:34.364Z,20.02
2022-07-25T05:27:02.291Z,19.92
2022-07-25T05:29:30.085Z,20.23
2022-07-25T05:31:57.960Z,20.23
2022-07-25T05:34:25.872Z,20.44
2022-07-25T05:36:53.658Z,20.45
2022-07-25T05:39:23.022Z,20.67
2022-07-25T05:41:50.822Z,20.69
2022-07-25T05:44:18.815Z,20.84
2022-07-25T05:46:46.831Z,21.00
2022-07-25T05:49:16.051Z,21.15
2022-07-25T05:51:44.039Z,21.28
2022-07-25T05:54:11.819Z,21.25
2022-07-25T05:56:41.045Z,21.65
2022-07-25T05:59:09.181Z,21.45
2022-07-25T06:01:37.287Z,21.58
2022-07-25T06:04:05.711Z,21.87
2022-07-25T06:06:33.707Z,21.97
2022-07-25T06:09:01.428Z,22.17
2022-07-25T06:14:00.284Z,22.50
2022-07-25T06:16:28.448Z,22.96
2022-07-25T06:18:56.368Z,23.33
2022-07-25T06:21:24.233Z,24.01
2022-07-25T06:23:52.019Z,24.42
2022-07-25T06:26:19.961Z,24.44
2022-07-25T06:28:47.817Z,24.70
2022-07-25T06:31:17.215Z,24.87
2022-07-25T06:33:44.998Z,25.30
2022-07-25T06:36:12.856Z,25.43
2022-07-25T06:38:40.644Z,25.87
2022-07-25T06:41:08.442Z,26.10
2022-07-25T06:43:36.328Z,26.27
2022-07-25T06:46:04.093Z,26.48
2022-07-25T06:48:33.264Z,26.71
2022-07-25T06:51:01.073Z,26.87
2022-07-25T06:53:29.303Z,27.03
2022-07-25T06:55:57.132Z,27.29
2022-07-25T06:58:25.934Z,27.45
2022-07-25T07:00:53.946Z,27.54
2022-07-25T07:03:21.974Z,27.72
2022-07-25T07:05:51.401Z,27.94
2022-07-25T07:08:19.274Z,28.16
2022-07-25T07:10:47.284Z,28.28
2022-07-25T07:13:22.249Z,28.39
2022-07-25T07:15:52.453Z,28.62
2022-07-25T07:18:21.392Z,28.87
2022-07-25T07:20:49.294Z,29.16
2022-07-25T07:23:19.199Z,29.34
2022-07-25T07:25:47.708Z,29.48
2022-07-25T07:28:16.499Z,29.52
2022-07-25T07:31:15.811Z,29.45
2022-07-25T07:33:33.415Z,29.78
2022-07-25T07:36:01.307Z,29.77
2022-07-25T07:38:30.603Z,29.95
2022-07-25T07:40:58.476Z,30.24
2022-07-25T07:43:29.952Z,30.39
2022-07-25T07:46:00.760Z,30.74
2022-07-25T07:48:29.432Z,30.95
2022-07-25T07:50:57.647Z,30.83
2022-07-25T07:53:45.711Z,30.80
2022-07-25T07:56:14.994Z,30.98
2022-07-25T07:58:42.957Z,31.34
2022-07-25T08:01:10.887Z,31.69
2022-07-25T08:03:38.867Z,31.44
2022-07-25T08:06:07.510Z,31.54
2022-07-25T08:08:35.569Z,32.09
2022-07-25T08:11:03.427Z,32.23
2022-07-25T08:13:34.086Z,32.38
2022-07-25T08:16:03.574Z,32.32
2022-07-25T08:18:32.861Z,32.58
2022-07-25T08:21:02.947Z,32.77
2022-07-25T08:23:31.842Z,32.71
2022-07-25T08:26:00.725Z,32.71
2022-07-25T08:28:28.888Z,33.14
2022-07-25T08:30:59.003Z,33.17
2022-07-25T08:33:26.949Z,33.26
2022-07-25T08:35:56.424Z,33.81
2022-07-25T08:38:26.172Z,33.99
2022-07-25T08:40:54.380Z,34.14
2022-07-25T08:43:22.450Z,34.16
2022-07-25T08:45:51.851Z,34.00
2022-07-25T08:48:23.422Z,34.44
2022-07-25T08:50:52.254Z,34.48
2022-07-25T08:53:36.902Z,34.27
2022-07-25T08:56:12.647Z,34.39
2022-07-25T08:58:44.604Z,34.71
2022-07-25T09:01:13.611Z,34.89
2022-07-25T09:03:43.447Z,34.71
2022-07-25T09:06:14.918Z,34.81
2022-07-25T09:08:52.717Z,34.88
2022-07-25T09:11:31.266Z,35.07
2022-07-25T09:14:01.470Z,34.75
2022-07-25T09:16:33.925Z,35.05
2022-07-25T09:19:12.050Z,35.53
2022-07-25T09:21:40.918Z,35.62
2022-07-25T09:24:14.097Z,35.02
2022-07-25T09:26:49.717Z,34.64
2022-07-25T09:29:23.606Z,34.79
2022-07-25T09:31:52.429Z,35.30
2022-07-25T09:34:37.813Z,35.57
2022-07-25T09:37:07.807Z,35.28
2022-07-25T09:39:46.091Z,35.25
2022-07-25T09:42:22.471Z,36.16
2022-07-25T09:45:06.522Z,36.32
2022-07-25T09:47:36.653Z,36.26
2022-07-25T09:50:07.475Z,36.34
2022-07-25T09:52:36.752Z,36.46
2022-07-25T09:55:06.384Z,36.51
2022-07-25T09:57:34.205Z,36.85
2022-07-25T10:00:02.662Z,36.83
2022-07-25T10:02:48.622Z,37.55
2022-07-25T10:05:26.783Z,37.35
2022-07-25T10:07:56.284Z,37.14
2022-07-25T10:10:30.521Z,37.25
2022-07-25T10:13:09.508Z,36.86
2022-07-25T10:15:47.393Z,36.83
2022-07-25T10:18:16.825Z,37.33
2022-07-25T10:20:47.186Z,37.04
2022-07-25T10:23:21.944Z,37.21
2022-07-25T10:26:01.303Z,37.23
2022-07-25T10:28:38.841Z,37.66
2022-07-25T10:31:17.220Z,38.52
2022-07-25T10:33:49.583Z,37.69
2022-07-25T10:36:19.498Z,37.21
2022-07-25T10:38:48.022Z,37.57
2022-07-25T10:41:17.489Z,38.16
2022-07-25T10:43:48.670Z,38.72
2022-07-25T10:46:20.488Z,38.76
2022-07-25T10:48:59.114Z,38.14
2022-07-25T10:51:30.078Z,38.12
2022-07-25T10:53:58.719Z,38.79
2022-07-25T10:56:28.714Z,38.07
2022-07-25T10:58:58.369Z,38.15
2022-07-25T11:01:27.200Z,38.73
2022-07-25T11:03:56.471Z,39.06
2022-07-25T11:06:34.564Z,39.02
2022-07-25T11:09:03.678Z,38.04
2022-07-25T11:11:40.459Z,37.95
2022-07-25T11:14:16.582Z,38.63
2022-07-25T11:16:46.271Z,39.01
2022-07-25T11:19:22.469Z,38.74
2022-07-25T11:21:53.560Z,38.80
2022-07-25T11:24:21.782Z,38.90
2022-07-25T11:26:51.615Z,38.26
2022-07-25T11:29:20.763Z,39.06
2022-07-25T11:31:56.564Z,38.79
2022-07-25T11:34:28.356Z,38.85
2022-07-25T11:36:59.747Z,37.97
2022-07-25T11:39:28.724Z,38.30
2022-07-25T11:42:01.609Z,39.18
2022-07-25T11:44:33.974Z,38.49
2022-07-25T11:47:02.195Z,38.60
2022-07-25T11:49:30.223Z,38.43
2022-07-25T11:51:59.397Z,38.76
2022-07-25T11:54:27.235Z,39.06
2022-07-25T11:56:55.108Z,39.38
2022-07-25T11:59:22.919Z,39.69
2022-07-25T12:01:51.390Z,38.30
2022-07-25T12:04:20.909Z,38.90
2022-07-25T12:06:50.251Z,39.37
2022-07-25T12:09:21.704Z,39.65
2022-07-25T12:11:50.422Z,38.82
2022-07-25T12:14:18.326Z,39.77
2022-07-25T12:16:46.199Z,39.47
2022-07-25T12:19:22.599Z,39.77
2022-07-25T12:21:50.883Z,38.70
2022-07-25T12:24:20.777Z,38.73
2022-07-25T12:26:49.259Z,39.36
2022-07-25T12:29:17.419Z,39.12
2022-07-25T12:31:45.816Z,38.30
2022-07-25T12:34:14.428Z,38.52
2022-07-25T12:36:45.200Z,38.74
2022-07-25T12:39:13.656Z,37.69
2022-07-25T12:41:45.633Z,37.48
2022-07-25T12:44:15.297Z,37.08
2022-07-25T12:46:49.106Z,36.73
2022-07-25T12:49:18.080Z,36.88
2022-07-25T12:51:46.560Z,36.69
2022-07-25T12:54:21.710Z,36.84
2022-07-25T12:56:52.517Z,36.52
2022-07-25T12:59:21.263Z,36.83
2022-07-25T13:01:49.823Z,37.14
2022-07-25T13:04:18.515Z,36.95
2022-07-25T13:06:46.975Z,37.08
2022-07-25T13:09:15.493Z,37.24
2022-07-25T13:11:46.569Z,37.35
2022-07-25T13:14:21.564Z,37.21
2022-07-25T13:16:50.036Z,37.58
2022-07-25T13:19:21.103Z,36.12
2022-07-25T13:21:49.944Z,36.13
2022-07-25T13:24:21.827Z,35.82
2022-07-25T13:26:50.272Z,36.33
2022-07-25T13:29:20.234Z,36.34
2022-07-25T13:31:50.940Z,36.11
2022-07-25T13:34:20.322Z,35.58
2022-07-25T13:36:49.349Z,35.79
2022-07-25T13:39:18.061Z,35.58
2022-07-25T13:41:48.698Z,35.45
2022-07-25T13:44:17.529Z,35.56
2022-07-25T13:46:49.994Z,35.43
2022-07-25T13:49:18.815Z,35.39
2022-07-25T13:51:47.645Z,35.89
2022-07-25T13:54:17.117Z,35.77
2022-07-25T13:56:45.704Z,35.54
2022-07-25T13:59:20.501Z,35.47
2022-07-25T14:01:50.834Z,35.32
2022-07-25T14:04:18.764Z,35.36
2022-07-25T14:06:51.810Z,35.26
2022-07-25T14:09:21.041Z,35.72
2022-07-25T14:11:49.543Z,35.88
2022-07-25T14:14:18.051Z,36.13
2022-07-25T14:16:46.078Z,36.50
2022-07-25T14:19:16.014Z,36.13
2022-07-25T14:21:43.954Z,36.37
2022-07-25T14:24:11.794Z,36.08
2022-07-25T14:26:39.642Z,35.61
2022-07-25T14:29:11.108Z,36.27
2022-07-25T14:31:40.877Z,36.68
2022-07-25T14:34:08.651Z,36.69
2022-07-25T14:36:37.833Z,37.10
2022-07-25T14:39:06.696Z,37.20
2022-07-25T14:41:35.235Z,37.13
2022-07-25T14:44:03.184Z,37.72
2022-07-25T14:46:31.114Z,37.19
2022-07-25T14:48:59.306Z,36.76
2022-07-25T14:51:28.550Z,36.64
2022-07-25T14:53:57.737Z,36.71
2022-07-25T14:56:25.677Z,36.86
2022-07-25T14:58:53.453Z,36.45
2022-07-25T15:01:24.344Z,35.96
2022-07-25T15:03:52.582Z,35.87
2022-07-25T15:06:21.814Z,35.23
2022-07-25T15:08:52.005Z,35.09
2022-07-25T15:11:21.881Z,35.09
2022-07-25T15:13:50.277Z,35.10
2022-07-25T15:16:19.092Z,34.88
2022-07-25T15:19:14.665Z,34.91
2022-07-25T15:21:35.316Z,35.07
2022-07-25T15:24:03.253Z,35.14
2022-07-25T15:26:32.687Z,35.25
2022-07-25T15:29:00.513Z,34.81
2022-07-25T15:31:28.956Z,34.61
2022-07-25T15:33:56.975Z,34.29
2022-07-25T15:36:29.351Z,34.02
2022-07-25T15:38:58.026Z,34.24
2022-07-25T15:41:26.659Z,34.08
2022-07-25T15:43:55.942Z,33.78
2022-07-25T15:46:23.945Z,34.05
2022-07-25T15:48:51.811Z,33.93
2022-07-25T15:51:20.217Z,34.00
2022-07-25T15:53:48.057Z,33.75
2022-07-25T15:56:16.339Z,33.68
2022-07-25T15:58:44.304Z,33.69
2022-07-25T16:01:13.463Z,33.74
2022-07-25T16:03:41.357Z,33.86
2022-07-25T16:06:09.410Z,33.64
2022-07-25T16:08:37.913Z,33.70
2022-07-25T16:11:06.315Z,33.55
2022-07-25T16:13:34.233Z,33.78
2022-07-25T16:16:02.086Z,33.84
2022-07-25T16:18:32.272Z,33.63
2022-07-25T16:21:00.224Z,33.88
2022-07-25T16:23:28.241Z,33.77
2022-07-25T16:25:56.311Z,33.99
2022-07-25T16:28:24.262Z,34.39
2022-07-25T16:30:52.275Z,34.52
2022-07-25T16:33:20.214Z,34.82
2022-07-25T16:35:49.557Z,34.38
2022-07-25T16:38:17.877Z,34.36
2022-07-25T16:40:46.072Z,34.40
2022-07-25T16:43:13.899Z,34.50
2022-07-25T16:45:43.010Z,34.88
2022-07-25T16:48:10.895Z,34.42
2022-07-25T16:50:38.726Z,34.75
2022-07-25T16:53:08.210Z,34.32
2022-07-25T16:55:36.031Z,34.36
2022-07-25T16:58:03.872Z,34.14
2022-07-25T17:00:31.803Z,34.16
2022-07-25T17:02:59.748Z,34.01
2022-07-25T17:05:27.873Z,33.95
2022-07-25T17:07:59.552Z,34.11
2022-07-25T17:10:29.906Z,34.20
2022-07-25T17:12:57.905Z,33.74
2022-07-25T17:15:25.912Z,33.67
2022-07-25T17:17:53.704Z,33.26
2022-07-25T17:20:21.790Z,32.86
2022-07-25T17:22:49.797Z,33.13
2022-07-25T17:25:17.766Z,32.94
2022-07-25T17:27:46.952Z,32.67
2022-07-25T17:30:14.986Z,32.62
2022-07-25T17:32:42.826Z,32.54
2022-07-25T17:35:10.976Z,32.42
2022-07-25T17:37:38.867Z,32.61
2022-07-25T17:40:07.757Z,32.46
2022-07-25T17:42:35.558Z,32.52
2022-07-25T17:45:06.983Z,32.30
2022-07-25T17:47:35.243Z,32.46
2022-07-25T17:50:03.330Z,32.52
2022-07-25T17:52:31.244Z,32.37
2022-07-25T17:54:59.604Z,32.41
2022-07-25T17:57:27.521Z,32.32
2022-07-25T17:59:55.327Z,32.25
2022-07-25T18:02:24.657Z,31.99
2022-07-25T18:04:53.659Z,31.94
2022-07-25T18:07:21.798Z,31.85
2022-07-25T18:09:49.588Z,31.81
2022-07-25T18:12:17.411Z,31.80
2022-07-25T18:14:45.232Z,31.69
2022-07-25T18:17:13.275Z,31.79
2022-07-25T18:19:42.416Z,31.59
2022-07-25T18:22:10.212Z,31.63
2022-07-25T18:24:38.393Z,31.54
2022-07-25T18:27:06.759Z,31.55
2022-07-25T18:29:37.215Z,31.48
2022-07-25T18:32:05.571Z,31.25
2022-07-25T18:34:33.993Z,31.23
2022-07-25T18:37:03.413Z,30.91
2022-07-25T18:39:31.504Z,30.64
2022-07-25T18:41:59.994Z,30.43
2022-07-25T18:44:28.119Z,30.28
2022-07-25T18:46:57.087Z,30.13
2022-07-25T18:49:27.098Z,29.96
2022-07-25T18:51:54.909Z,29.76
2022-07-25T18:54:24.348Z,29.60
2022-07-25T18:56:52.207Z,29.54
2022-07-25T18:59:20.207Z,29.44
2022-07-25T19:01:50.014Z,29.31
2022-07-25T19:04:18.244Z,29.16
2022-07-25T19:06:46.221Z,29.13
2022-07-25T19:09:14.204Z,29.07
2022-07-25T19:11:43.338Z,29.05
2022-07-25T19:14:11.465Z,28.98
2022-07-25T19:16:39.307Z,28.86
2022-07-25T19:19:09.556Z,28.93
2022-07-25T19:21:37.665Z,28.78
2022-07-25T19:24:06.459Z,28.67
2022-07-25T19:26:34.470Z,28.63
2022-07-25T19:29:06.129Z,28.61
2022-07-25T19:31:34.306Z,28.63
2022-07-25T19:34:02.267Z,28.52
2022-07-25T19:36:29.995Z,28.57
2022-07-25T19:38:57.736Z,28.49
2022-07-25T19:41:26.218Z,28.52
2022-07-25T19:43:54.869Z,28.50
2022-07-25T19:46:25.027Z,28.42
2022-07-25T19:48:52.931Z,28.24
2022-07-25T19:51:20.866Z,28.19
2022-07-25T19:53:48.777Z,28.17
2022-07-25T19:56:16.709Z,28.05
2022-07-25T19:58:45.273Z,27.99
2022-07-25T20:01:13.343Z,27.99
2022-07-25T20:03:42.666Z,27.99
2022-07-25T20:06:10.854Z,27.94
2022-07-25T20:08:40.192Z,27.80
2022-07-25T20:11:08.282Z,27.72
2022-07-25T20:13:36.395Z,27.74
2022-07-25T20:16:04.819Z,27.63
2022-07-25T20:18:32.789Z,27.48
2022-07-25T20:21:02.323Z,27.43
2022-07-25T20:23:30.723Z,27.34
2022-07-25T20:26:00.065Z,27.28
2022-07-25T20:28:27.873Z,27.26
2022-07-25T20:30:56.281Z,27.15
2022-07-25T20:33:27.021Z,27.14
2022-07-25T20:35:55.077Z,27.12
2022-07-25T20:38:25.481Z,26.98
2022-07-25T20:40:54.856Z,26.92
2022-07-25T20:43:23.266Z,26.69
2022-07-25T20:45:51.261Z,26.68
2022-07-25T20:48:19.176Z,26.71
2022-07-25T20:50:47.048Z,26.49
2022-07-25T20:53:14.891Z,26.36
2022-07-25T20:55:44.275Z,26.44
2022-07-25T20:58:12.143Z,26.27
2022-07-25T21:00:40.098Z,26.06
2022-07-25T21:03:08.394Z,26.02
2022-07-25T21:05:37.634Z,25.92
2022-07-25T21:08:05.775Z,26.01
2022-07-25T21:10:33.601Z,25.83
2022-07-25T21:13:02.840Z,25.75
2022-07-25T21:15:31.630Z,25.69
2022-07-25T21:17:59.739Z,25.69
2022-07-25T21:20:27.635Z,25.57
2022-07-25T21:22:56.349Z,25.45
2022-07-25T21:25:24.271Z,25.57
2022-07-25T21:27:52.343Z,25.52
2022-07-25T21:30:21.926Z,25.53
2022-07-25T21:32:49.778Z,25.36
2022-07-25T21:35:18.146Z,25.14
2022-07-25T21:37:45.945Z,25.22
2022-07-25T21:40:13.952Z,25.17
2022-07-25T21:42:43.051Z,25.24
2022-07-25T21:45:11.930Z,24.98
2022-07-25T21:47:41.498Z,25.05
2022-07-25T21:50:30.185Z,25.04
2022-07-25T21:52:59.443Z,24.91
2022-07-25T21:55:27.445Z,24.66
2022-07-25T21:57:55.357Z,24.74
2022-07-25T22:00:23.682Z,24.59
2022-07-25T22:02:53.100Z,24.70
2022-07-25T22:05:21.342Z,24.73
2022-07-25T22:07:49.715Z,24.92
2022-07-25T22:10:19.682Z,24.77
2022-07-25T22:12:47.837Z,24.63
2022-07-25T22:15:16.226Z,24.39
2022-07-25T22:17:48.770Z,24.07
2022-07-25T22:20:19.638Z,24.25
2022-07-25T22:22:47.839Z,24.14
2022-07-25T22:25:15.955Z,24.01
2022-07-25T22:27:43.815Z,23.91
2022-07-25T22:30:18.299Z,24.01
2022-07-25T22:32:47.760Z,24.01
2022-07-25T22:35:15.785Z,23.95
2022-07-25T22:37:45.446Z,23.97
2022-07-25T22:40:14.701Z,23.89
2022-07-25T22:42:42.774Z,24.10
2022-07-25T22:45:11.647Z,24.14
2022-07-25T22:47:39.614Z,24.14
2022-07-25T22:50:09.563Z,24.11
2022-07-25T22:52:37.343Z,24.01
2022-07-25T22:55:07.310Z,23.99
2022-07-25T22:57:37.121Z,24.06
2022-07-25T23:00:06.931Z,24.05
2022-07-25T23:02:34.786Z,24.08
2022-07-25T23:05:02.678Z,23.95
2022-07-25T23:07:30.455Z,24.04
2022-07-25T23:09:58.234Z,24.12
2022-07-25T23:12:27.383Z,24.09
2022-07-25T23:14:55.220Z,23.96
2022-07-25T23:17:24.613Z,23.91
2022-07-25T23:19:54.846Z,23.81
2022-07-25T23:22:23.254Z,23.70
2022-07-25T23:24:51.067Z,23.68
2022-07-25T23:27:19.313Z,23.52
2022-07-25T23:29:48.482Z,23.72
2022-07-25T23:32:16.447Z,23.76
2022-07-25T23:34:44.958Z,23.65
2022-07-25T23:37:12.915Z,23.57
2022-07-25T23:39:40.991Z,23.56
2022-07-25T23:42:08.903Z,23.46
2022-07-25T23:44:36.666Z,23.52
2022-07-25T23:47:10.080Z,23.56
2022-07-25T23:49:38.594Z,23.59
2022-07-25T23:52:06.861Z,23.58
2022-07-25T23:54:35.685Z,23.42
2022-07-25T23:57:03.762Z,23.36
2022-07-25T23:59:31.944Z,23.27
